createdAt,value
2023-03-04T00:01:25.008Z,98110.47
2023-03-04T00:04:36.620Z,98109.63
2023-03-04T00:07:51.429Z,98103.63
2023-03-04T00:10:56.482Z,98116.78
2023-03-04T00:14:10.992Z,98116.19
2023-03-04T00:17:21.329Z,98112.34
2023-03-04T00:20:33.908Z,98119.31
2023-03-04T00:23:57.455Z,98107.06
2023-03-04T00:27:22.336Z,98127.75
2023-03-04T00:30:27.074Z,98120.50
2023-03-04T00:33:34.065Z,98122.84
2023-03-04T00:36:49.131Z,98130.53
2023-03-04T00:39:59.332Z,98125.78
2023-03-04T00:43:06.139Z,98118.03
2023-03-04T00:46:13.772Z,98125.72
2023-03-04T00:49:42.351Z,98118.50
2023-03-04T00:53:09.678Z,98115.25
2023-03-04T00:56:18.656Z,98116.50
2023-03-04T00:59:25.410Z,98111.13
2023-03-04T01:02:29.913Z,98112.59
2023-03-04T01:05:42.331Z,98114.31
2023-03-04T01:08:55.601Z,98113.25
2023-03-04T01:15:27.249Z,98110.91
2023-03-04T01:18:31.022Z,98112.59
2023-03-04T01:21:37.236Z,98102.25
2023-03-04T01:25:01.485Z,98108.16
2023-03-04T01:28:10.596Z,98103.19
2023-03-04T01:31:17.515Z,98102.88
2023-03-04T01:34:23.802Z,98097.94
2023-03-04T01:37:29.743Z,98083.25
2023-03-04T01:40:40.050Z,98082.19
2023-03-04T01:43:48.136Z,98083.13
2023-03-04T01:46:56.050Z,98081.88
2023-03-04T01:50:07.291Z,98072.59
2023-03-04T01:53:22.120Z,98070.41
2023-03-04T01:56:43.012Z,98078.13
2023-03-04T02:00:24.075Z,98063.75
2023-03-04T02:03:39.890Z,98063.28
2023-03-04T02:06:48.188Z,98063.91
2023-03-04T02:09:54.425Z,98066.84
2023-03-04T02:13:11.584Z,98059.81
2023-03-04T02:16:17.770Z,98062.41
2023-03-04T02:19:42.602Z,98057.28
2023-03-04T02:23:00.157Z,98055.00
2023-03-04T02:26:19.404Z,98052.19
2023-03-04T02:29:35.430Z,98049.44
2023-03-04T02:32:42.678Z,98050.19
2023-03-04T02:35:55.262Z,98049.25
2023-03-04T02:39:07.933Z,98051.00
2023-03-04T02:42:14.524Z,98043.19
2023-03-04T02:45:35.522Z,98046.97
2023-03-04T02:48:40.502Z,98035.09
2023-03-04T02:51:46.337Z,98037.88
2023-03-04T02:54:56.463Z,98038.59
2023-03-04T02:58:06.140Z,98038.88
2023-03-04T03:01:10.526Z,98037.22
2023-03-04T03:04:35.157Z,98031.53
2023-03-04T03:07:40.105Z,98024.25
2023-03-04T03:10:52.280Z,98034.19
2023-03-04T03:14:27.222Z,98027.78
2023-03-04T03:17:40.393Z,98022.88
2023-03-04T03:20:50.970Z,98025.81
2023-03-04T03:24:01.964Z,98022.72
2023-03-04T03:27:08.714Z,98023.03
2023-03-04T03:30:18.017Z,98015.00
2023-03-04T03:33:24.665Z,98015.59
2023-03-04T03:36:30.083Z,98015.94
2023-03-04T03:39:44.304Z,98025.66
2023-03-04T03:42:48.632Z,98024.13
2023-03-04T03:45:54.108Z,98019.97
2023-03-04T03:48:58.652Z,98013.00
2023-03-04T03:52:05.671Z,98018.25
2023-03-04T03:55:14.147Z,98013.00
2023-03-04T03:58:18.720Z,98011.59
2023-03-04T04:01:38.617Z,98011.59
2023-03-04T04:04:42.345Z,97999.53
2023-03-04T04:07:48.519Z,98003.75
2023-03-04T04:10:55.450Z,98016.25
2023-03-04T04:14:07.679Z,98010.03
2023-03-04T04:17:14.613Z,98013.59
2023-03-04T04:20:26.360Z,98012.25
2023-03-04T04:23:32.544Z,98011.44
2023-03-04T04:26:43.391Z,98013.13
2023-03-04T04:29:47.814Z,98017.31
2023-03-04T04:32:55.790Z,98017.50
2023-03-04T04:36:06.281Z,98021.19
2023-03-04T04:39:16.529Z,98018.72
2023-03-04T04:42:26.104Z,98016.50
2023-03-04T04:45:34.801Z,98020.41
2023-03-04T04:48:42.507Z,98021.38
2023-03-04T04:51:52.480Z,98017.00
2023-03-04T04:55:04.011Z,98015.53
2023-03-04T04:58:12.680Z,98013.53
2023-03-04T05:01:22.502Z,98008.59
2023-03-04T05:04:31.101Z,98017.66
2023-03-04T05:07:45.725Z,98027.41
2023-03-04T05:10:56.484Z,98021.09
2023-03-04T05:14:07.527Z,98018.53
2023-03-04T05:17:17.356Z,98017.97
2023-03-04T05:20:34.812Z,98028.03
2023-03-04T05:23:44.342Z,98028.03
2023-03-04T05:26:53.070Z,98024.78
2023-03-04T05:30:47.303Z,98032.56
2023-03-04T05:33:58.634Z,98030.53
2023-03-04T05:37:40.108Z,98025.13
2023-03-04T05:41:11.170Z,98034.44
2023-03-04T05:49:09.124Z,98028.44
2023-03-04T05:53:13.278Z,98034.31
2023-03-04T05:57:15.441Z,98043.56
2023-03-04T06:01:08.215Z,98053.13
2023-03-04T06:08:50.456Z,98044.81
2023-03-04T06:12:28.941Z,98056.03
2023-03-04T06:17:03.444Z,98057.00
2023-03-04T06:20:48.655Z,98068.47
2023-03-04T06:24:24.506Z,98069.22
2023-03-04T06:28:18.110Z,98068.59
2023-03-04T06:32:40.168Z,98075.75
2023-03-04T06:36:47.572Z,98075.31
2023-03-04T06:41:12.230Z,98082.69
2023-03-04T06:45:19.113Z,98080.06
2023-03-04T06:49:20.301Z,98078.66
2023-03-04T06:53:08.155Z,98086.16
2023-03-04T06:57:21.958Z,98085.41
2023-03-04T07:00:57.327Z,98098.72
2023-03-04T07:04:35.274Z,98092.66
2023-03-04T07:08:20.614Z,98090.03
2023-03-04T07:12:53.095Z,98094.84
2023-03-04T07:16:20.641Z,98104.25
2023-03-04T07:19:57.334Z,98096.25
2023-03-04T07:23:13.634Z,98092.31
2023-03-04T07:26:59.073Z,98102.25
2023-03-04T07:34:28.860Z,98097.25
2023-03-04T07:38:39.289Z,98100.38
2023-03-04T07:41:52.110Z,98087.97
2023-03-04T07:45:26.452Z,98096.19
2023-03-04T07:49:27.800Z,98098.47
2023-03-04T07:53:12.655Z,98096.97
2023-03-04T07:56:54.873Z,98086.75
2023-03-04T08:00:48.659Z,98083.06
2023-03-04T08:05:22.329Z,98087.03
2023-03-04T08:14:09.706Z,98086.97
2023-03-04T08:18:10.379Z,98079.47
2023-03-04T08:22:16.504Z,98076.44
2023-03-04T08:26:51.453Z,98073.78
2023-03-04T08:31:01.919Z,98072.22
2023-03-04T08:35:05.984Z,98075.56
2023-03-04T08:39:23.572Z,98065.34
2023-03-04T08:43:06.689Z,98067.53
2023-03-04T08:47:54.861Z,98059.84
2023-03-04T08:51:28.300Z,98056.91
2023-03-04T08:55:27.796Z,98063.91
2023-03-04T08:59:05.816Z,98052.91
2023-03-04T09:03:18.964Z,98043.63
2023-03-04T09:07:02.837Z,98054.34
2023-03-04T09:10:25.005Z,98050.31
2023-03-04T09:13:57.009Z,98051.25
2023-03-04T09:17:51.022Z,98034.56
2023-03-04T09:25:38.171Z,98034.84
2023-03-04T09:29:32.376Z,98043.50
2023-03-04T09:33:28.568Z,98033.47
2023-03-04T09:37:51.070Z,98030.84
2023-03-04T09:42:13.834Z,98036.72
2023-03-04T09:46:09.118Z,98034.75
2023-03-04T09:49:51.893Z,98031.19
2023-03-04T09:53:42.894Z,98037.69
2023-03-04T09:58:10.005Z,98031.78
2023-03-04T10:02:18.133Z,98030.84
2023-03-04T10:06:07.772Z,98029.94
2023-03-04T10:09:54.302Z,98026.09
2023-03-04T10:13:28.943Z,98016.00
2023-03-04T10:17:40.560Z,98010.25
2023-03-04T10:25:37.284Z,98006.19
2023-03-04T10:29:49.095Z,98001.66
2023-03-04T10:33:56.978Z,97993.59
2023-03-04T10:37:30.418Z,97998.75
2023-03-04T10:41:40.865Z,97987.25
2023-03-04T10:45:02.651Z,97981.63
2023-03-04T10:48:48.886Z,97982.91
2023-03-04T10:52:16.764Z,97968.59
2023-03-04T10:55:27.186Z,97966.44
2023-03-04T10:58:33.797Z,97960.91
2023-03-04T11:01:42.948Z,97960.91
2023-03-04T11:05:27.451Z,97938.00
2023-03-04T11:08:59.389Z,97950.56
2023-03-04T11:13:16.689Z,97936.94
2023-03-04T11:16:37.124Z,97934.22
2023-03-04T11:19:46.686Z,97927.25
2023-03-04T11:23:25.545Z,97924.38
2023-03-04T11:26:52.331Z,97918.41
2023-03-04T11:30:43.794Z,97905.34
2023-03-04T11:34:23.644Z,97907.59
2023-03-04T11:37:49.363Z,97904.22
2023-03-04T11:41:20.994Z,97908.47
2023-03-04T11:44:33.234Z,97911.00
2023-03-04T11:48:08.200Z,97899.53
2023-03-04T11:51:47.609Z,97898.56
2023-03-04T11:55:29.917Z,97892.38
2023-03-04T11:59:22.208Z,97898.22
2023-03-04T12:03:05.899Z,97894.47
2023-03-04T12:06:27.228Z,97885.88
2023-03-04T12:10:14.662Z,97886.69
2023-03-04T12:14:21.626Z,97879.53
2023-03-04T12:18:20.804Z,97877.59
2023-03-04T12:22:11.619Z,97866.44
2023-03-04T12:26:12.789Z,97867.47
2023-03-04T12:30:11.315Z,97867.03
2023-03-04T12:34:49.511Z,97857.47
2023-03-04T12:39:06.331Z,97862.59
2023-03-04T12:42:54.609Z,97852.34
2023-03-04T12:46:30.107Z,97838.38
2023-03-04T12:50:29.617Z,97847.34
2023-03-04T12:57:47.604Z,97828.84
2023-03-04T13:01:36.334Z,97833.78
2023-03-04T13:10:16.069Z,97831.53
2023-03-04T13:14:21.908Z,97825.28
2023-03-04T13:18:02.083Z,97820.28
2023-03-04T13:21:42.703Z,97828.59
2023-03-04T13:25:33.426Z,97813.75
2023-03-04T13:34:44.980Z,97806.31
2023-03-04T13:38:30.095Z,97814.13
2023-03-04T13:47:07.931Z,97796.88
2023-03-04T13:51:40.616Z,97798.63
2023-03-04T14:00:38.087Z,97788.59
2023-03-04T14:09:01.388Z,97783.09
2023-03-04T14:12:41.321Z,97769.44
2023-03-04T14:16:19.808Z,97776.09
2023-03-04T14:20:39.050Z,97763.66
2023-03-04T14:24:21.545Z,97762.69
2023-03-04T14:27:50.122Z,97756.72
2023-03-04T14:35:46.853Z,97758.91
2023-03-04T14:39:15.096Z,97758.47
2023-03-04T14:43:05.269Z,97752.16
2023-03-04T14:46:24.178Z,97751.38
2023-03-04T14:49:36.776Z,97760.41
2023-03-04T14:53:07.768Z,97752.81
2023-03-04T14:56:12.244Z,97760.56
2023-03-04T14:59:54.211Z,97742.81
2023-03-04T15:03:39.415Z,97744.13
2023-03-04T15:07:03.183Z,97737.59
2023-03-04T15:10:31.158Z,97729.38
2023-03-04T15:15:02.482Z,97733.22
2023-03-04T15:23:04.698Z,97722.06
2023-03-04T15:26:14.152Z,97725.34
2023-03-04T15:29:24.184Z,97721.56
2023-03-04T15:32:31.522Z,97723.63
2023-03-04T15:35:36.419Z,97729.41
2023-03-04T15:38:43.392Z,97724.19
2023-03-04T15:41:50.887Z,97725.41
2023-03-04T15:44:57.235Z,97720.91
2023-03-04T15:48:09.753Z,97724.19
2023-03-04T15:51:18.253Z,97710.44
2023-03-04T15:54:31.364Z,97716.13
2023-03-04T15:57:37.366Z,97705.88
2023-03-04T16:00:43.074Z,97705.69
2023-03-04T16:03:47.180Z,97701.56
2023-03-04T16:07:21.368Z,97702.09
2023-03-04T16:10:33.209Z,97702.84
2023-03-04T16:13:41.929Z,97707.34
2023-03-04T16:16:47.052Z,97708.19
2023-03-04T16:20:01.519Z,97707.81
2023-03-04T16:23:15.489Z,97707.06
2023-03-04T16:26:30.072Z,97707.44
2023-03-04T16:29:39.368Z,97709.41
2023-03-04T16:33:14.194Z,97698.50
2023-03-04T16:36:22.347Z,97709.97
2023-03-04T16:39:30.660Z,97709.50
2023-03-04T16:42:38.190Z,97700.75
2023-03-04T16:45:46.409Z,97702.34
2023-03-04T16:49:04.333Z,97703.81
2023-03-04T16:52:33.430Z,97709.50
2023-03-04T16:56:09.069Z,97705.81
2023-03-04T17:00:13.782Z,97721.81
2023-03-04T17:03:55.111Z,97716.44
2023-03-04T17:07:44.159Z,97719.13
2023-03-04T17:10:58.093Z,97721.91
2023-03-04T17:14:25.590Z,97717.50
2023-03-04T17:18:04.577Z,97714.97
2023-03-04T17:21:28.334Z,97714.81
2023-03-04T17:24:34.188Z,97719.75
2023-03-04T17:27:39.693Z,97708.03
2023-03-04T17:30:56.828Z,97712.06
2023-03-04T17:34:04.576Z,97715.44
2023-03-04T17:37:45.112Z,97706.69
2023-03-04T17:40:50.367Z,97707.75
2023-03-04T17:44:20.784Z,97703.25
2023-03-04T17:47:39.399Z,97699.78
2023-03-04T17:50:52.985Z,97707.97
2023-03-04T17:54:02.741Z,97698.03
2023-03-04T17:57:14.113Z,97705.72
2023-03-04T18:00:20.275Z,97699.75
2023-03-04T18:03:25.449Z,97707.81
2023-03-04T18:06:30.577Z,97700.25
2023-03-04T18:10:09.402Z,97700.25
2023-03-04T18:13:37.401Z,97697.47
2023-03-04T18:17:09.521Z,97702.19
2023-03-04T18:20:45.804Z,97699.28
2023-03-04T18:24:13.281Z,97701.44
2023-03-04T18:27:28.337Z,97684.84
2023-03-04T18:30:35.684Z,97703.09
2023-03-04T18:34:08.937Z,97697.63
2023-03-04T18:38:17.307Z,97693.94
2023-03-04T18:42:14.465Z,97695.56
2023-03-04T18:46:04.002Z,97700.94
2023-03-04T18:49:10.669Z,97689.81
2023-03-04T18:52:17.543Z,97691.75
2023-03-04T18:55:33.220Z,97691.38
2023-03-04T18:58:42.860Z,97691.59
2023-03-04T19:01:56.000Z,97693.78
2023-03-04T19:05:08.010Z,97701.19
2023-03-04T19:08:20.079Z,97699.66
2023-03-04T19:11:49.937Z,97695.69
2023-03-04T19:14:59.060Z,97694.34
2023-03-04T19:18:09.477Z,97691.03
2023-03-04T19:21:59.495Z,97698.97
2023-03-04T19:25:06.482Z,97702.19
2023-03-04T19:28:10.670Z,97705.59
2023-03-04T19:31:34.580Z,97706.97
2023-03-04T19:35:08.314Z,97708.91
2023-03-04T19:38:51.223Z,97713.47
2023-03-04T19:42:03.281Z,97719.53
2023-03-04T19:45:10.528Z,97720.69
2023-03-04T19:48:38.438Z,97721.59
2023-03-04T19:55:50.586Z,97715.91
2023-03-04T19:59:41.948Z,97720.06
2023-03-04T20:07:40.716Z,97725.00
2023-03-04T20:11:24.218Z,97725.75
2023-03-04T20:19:39.314Z,97728.00
2023-03-04T20:28:44.172Z,97734.16
2023-03-04T20:32:51.630Z,97726.00
2023-03-04T20:36:59.978Z,97725.97
2023-03-04T20:40:30.550Z,97726.56
2023-03-04T20:43:45.471Z,97730.72
2023-03-04T20:51:00.886Z,97720.50
2023-03-04T20:55:00.937Z,97729.34
2023-03-04T20:58:26.843Z,97732.13
2023-03-04T21:01:37.594Z,97735.75
2023-03-04T21:05:03.623Z,97737.44
2023-03-04T21:08:27.585Z,97739.69
2023-03-04T21:11:59.672Z,97727.97
2023-03-04T21:15:31.028Z,97733.00
2023-03-04T21:18:46.612Z,97742.19
2023-03-04T21:22:21.394Z,97742.53
2023-03-04T21:25:57.149Z,97736.06
2023-03-04T21:29:50.455Z,97741.28
2023-03-04T21:37:12.349Z,97741.06
2023-03-04T21:40:57.541Z,97732.53
2023-03-04T21:44:28.857Z,97728.53
2023-03-04T21:48:45.051Z,97734.84
2023-03-04T21:52:06.118Z,97723.69
2023-03-04T21:55:45.974Z,97727.88
2023-03-04T22:03:15.788Z,97724.03
2023-03-04T22:07:12.906Z,97729.22
2023-03-04T22:11:07.732Z,97735.47
2023-03-04T22:14:55.432Z,97725.09
2023-03-04T22:17:59.966Z,97724.56
2023-03-04T22:21:28.755Z,97731.84
2023-03-04T22:24:55.473Z,97726.22
2023-03-04T22:28:18.800Z,97718.34
2023-03-04T22:31:46.918Z,97721.25
2023-03-04T22:36:02.467Z,97724.91
2023-03-04T22:45:13.778Z,97723.66
2023-03-04T22:49:12.403Z,97720.03
2023-03-04T22:54:00.723Z,97719.69
2023-03-04T22:58:15.792Z,97724.47
2023-03-04T23:02:02.954Z,97725.97
2023-03-04T23:06:03.802Z,97725.06
2023-03-04T23:09:54.709Z,97723.44
2023-03-04T23:13:45.606Z,97717.78
2023-03-04T23:17:01.398Z,97722.66
2023-03-04T23:20:16.300Z,97734.78
2023-03-04T23:23:28.007Z,97728.69
2023-03-04T23:26:46.472Z,97724.69
2023-03-04T23:29:58.148Z,97729.59
2023-03-04T23:33:10.667Z,97733.47
2023-03-04T23:36:31.217Z,97732.38
2023-03-04T23:39:38.910Z,97736.50
2023-03-04T23:42:45.499Z,97734.41
2023-03-04T23:46:15.595Z,97735.16
2023-03-04T23:49:33.454Z,97739.50
2023-03-04T23:53:26.413Z,97738.41
2023-03-04T23:56:42.150Z,97738.59
2023-03-04T23:59:52.116Z,97733.75
